Alliance, NE (69301)

1:45 PM MST on December 11, 2017 (GMT -0700)
Buskirk Ag | | Change Station

Elev 4030 ft 42.15 °N, 102.89 °W | Updated 4 minutes ago

Partly Cloudy
Partly Cloudy
46.6 °F
Feels Like 40 °F
N
18.0
Wind Variable Wind from NW
Gusts 27.0 mph

Today
High -- | Low -- °F
--% Chance of Precip.
Yesterday
High -- | Low -- °F
Precip. -- in
Pressure 30.30 in
Visibility 10.0 miles
Clouds Clear
Windchill 40 °F
Dew Point 13 °F
Humidity 25%
Rainfall 0.00 in
Snow Depth Not available.
7:09 AM 4:19 PM
Waning Crescent, 34% visible
METAR KAIA 111953Z AUTO 33025G32KT 10SM CLR 08/M12 A3027 RMK AO2 PK WND 32033/1903 SLP261 T00831117
Pressure 30.30 in
Visibility 10.0 miles
Clouds Clear
Windchill 40 °F
Dew Point 13 °F
Humidity 25%
Rainfall 0.00 in
Snow Depth Not available.
7:09 AM 4:19 PM
Waning Crescent, 34% visible
METAR KAIA 111953Z AUTO 33025G32KT 10SM CLR 08/M12 A3027 RMK AO2 PK WND 32033/1903 SLP261 T00831117

Get Severe Weather Alerts

Thanks for signing up!

Be on the lookout for a verification email in your inbox.

You'll start receiving the daily forecast at 6 AM.

×

10-Day Weather Forecast

Almanac

Astronomy

Dec. 11, 2017 Rise Set
Actual Time
Civil Twilight
Nautical Twilight
Astronomical Twilight
Moon
Length of Visible Light
Length of Day
Tomorrow will be .
, % of the Moon is Illuminated

Today's Extremes

State Highs State Lows

Community

WunderPhotos

Category 6

Welcome to Category 6. This is the collective home for Weather Underground's featured writeups by Dr. Jeff Masters (right), Bob Henson (left), Chris Burt, and other regular contributors.

Nearby

Air Quality

  Air Quality AQ Index Pollutant
Not available.

Snow Depth

Station Depth Elevation

Earthquake Activity

City Distance Mag. Time & Date
Minimum magnitude displayed is 2.5.

Coastal Water Temperatures

Place Temperature

Stations

Nearby Weather Stations

Station Location Temp. Windchill Dew Point Humidity Wind Precip. Elev Updated Type
                   

Watches & Warnings

There are currently no watches in effect.